Time;durP1;ratioP1;P1;durP2;ratioP2;P2;SDS_P1;SDS_P2;PMS_P1;PMS_P2;Temp;Humidity;BMP_temperature;BMP_pressure;BME280_temperature;BME280_humidity;BME280_pressure;Samples;Min_cycle;Max_cycle;Signal;HPM_P1;HPM_P2
2023/08/07 00:01:42;;;;;;;2.10;1.93;;;;;;;;;;5093353;28;20925;-64
2023/08/07 00:04:08;;;;;;;2.50;1.40;;;;;;;;;;5092457;28;20497;-64
2023/08/07 00:06:34;;;;;;;1.70;1.70;;;;;;;;;;5093557;28;20423;-65
2023/08/07 00:09:03;;;;;;;2.83;2.00;;;;;;;;;;5093372;28;20414;-65
2023/08/07 00:11:29;;;;;;;1.90;1.80;;;;;;;;;;5092988;28;20512;-64
2023/08/07 00:13:55;;;;;;;1.67;1.57;;;;;;;;;;5091295;28;20497;-64
2023/08/07 00:16:24;;;;;;;1.83;1.73;;;;;;;;;;5092802;28;20512;-65
2023/08/07 00:18:52;;;;;;;1.90;1.80;;;;;;;;;;5092898;28;20526;-65
2023/08/07 00:21:18;;;;;;;2.83;1.87;;;;;;;;;;5093118;28;20411;-64
2023/08/07 00:23:44;;;;;;;8.67;2.10;;;;;;;;;;5091679;28;20491;-64
2023/08/07 00:26:10;;;;;;;1.97;1.87;;;;;;;;;;5093097;28;20433;-64
2023/08/07 00:28:36;;;;;;;1.77;1.67;;;;;;;;;;5092971;28;20499;-64
2023/08/07 00:31:02;;;;;;;1.80;1.70;;;;;;;;;;5093044;28;20844;-64
2023/08/07 00:33:28;;;;;;;3.80;1.87;;;;;;;;;;5092907;28;20802;-64
2023/08/07 00:35:54;;;;;;;2.10;2.00;;;;;;;;;;5092970;28;20500;-64
2023/08/07 00:38:23;;;;;;;2.17;2.07;;;;;;;;;;5091370;28;20825;-64
2023/08/07 00:40:49;;;;;;;1.90;1.80;;;;;;;;;;5091852;28;20453;-64
2023/08/07 00:43:15;;;;;;;4.60;2.10;;;;;;;;;;5092343;28;20434;-65
2023/08/07 00:45:47;;;;;;;3.43;1.97;;;;;;;;;;5092617;28;20410;-64
2023/08/07 00:48:15;;;;;;;2.27;1.90;;;;;;;;;;5092323;28;20496;-64
2023/08/07 00:50:42;;;;;;;2.63;1.90;;;;;;;;;;5092454;28;20448;-64
2023/08/07 00:53:08;;;;;;;1.90;1.87;;;;;;;;;;5092811;28;20704;-65
2023/08/07 00:55:35;;;;;;;3.60;2.00;;;;;;;;;;5092677;28;20425;-65
2023/08/07 00:58:01;;;;;;;2.80;1.83;;;;;;;;;;5091010;28;20626;-64
2023/08/07 01:00:28;;;;;;;1.90;1.80;;;;;;;;;;5091443;28;20490;-64
2023/08/07 01:02:55;;;;;;;1.90;1.80;;;;;;;;;;5092365;28;20526;-65
2023/08/07 01:05:21;;;;;;;4.10;2.10;;;;;;;;;;5092407;28;20423;-65
2023/08/07 01:07:48;;;;;;;2.30;2.10;;;;;;;;;;5092249;28;20793;-65
2023/08/07 01:10:16;;;;;;;2.27;2.17;;;;;;;;;;5091514;28;20505;-65
2023/08/07 01:12:56;;;;;;;4.30;2.10;;;;;;;;;;5091538;28;20453;-65
2023/08/07 01:15:26;;;;;;;3.70;2.13;;;;;;;;;;5092022;28;20496;-65
2023/08/07 01:17:53;;;;;;;1.87;1.77;;;;;;;;;;5092291;28;20413;-65
2023/08/07 01:20:19;;;;;;;3.60;1.83;;;;;;;;;;5092237;28;20406;-64
2023/08/07 01:22:48;;;;;;;3.53;2.00;;;;;;;;;;5092471;28;20425;-64
2023/08/07 01:25:14;;;;;;;2.60;1.60;;;;;;;;;;5092522;28;20454;-64
2023/08/07 01:27:49;;;;;;;2.27;2.17;;;;;;;;;;5090896;28;20418;-64
2023/08/07 01:30:24;;;;;;;2.37;2.23;;;;;;;;;;5092018;28;20486;-64
2023/08/07 01:32:58;;;;;;;3.20;2.17;;;;;;;;;;5092146;28;20409;-64
2023/08/07 01:35:25;;;;;;;2.57;1.80;;;;;;;;;;5091956;28;20432;-64
2023/08/07 01:37:52;;;;;;;2.70;2.30;;;;;;;;;;5092011;28;20461;-64
2023/08/07 01:40:18;;;;;;;1.87;1.77;;;;;;;;;;5090554;28;20408;-64
2023/08/07 01:42:45;;;;;;;2.60;2.10;;;;;;;;;;5091102;28;20429;-64
2023/08/07 01:45:11;;;;;;;2.03;2.03;;;;;;;;;;5091142;28;20415;-64
2023/08/07 01:47:36;;;;;;;2.80;2.33;;;;;;;;;;5091193;28;20492;-64
2023/08/07 01:50:03;;;;;;;2.07;1.97;;;;;;;;;;5091757;28;20446;-64
2023/08/07 01:52:31;;;;;;;2.33;2.23;;;;;;;;;;5091873;28;20431;-64
2023/08/07 01:54:59;;;;;;;2.10;2.10;;;;;;;;;;5091820;28;20418;-64
2023/08/07 01:57:25;;;;;;;5.53;2.83;;;;;;;;;;5091825;28;20442;-64
2023/08/07 01:59:55;;;;;;;3.83;3.07;;;;;;;;;;5091725;28;20470;-64
2023/08/07 02:02:21;;;;;;;3.00;2.87;;;;;;;;;;5092111;28;20426;-64
2023/08/07 02:04:49;;;;;;;2.30;2.20;;;;;;;;;;5091666;28;20450;-64
2023/08/07 02:07:15;;;;;;;3.23;2.57;;;;;;;;;;5091734;28;20415;-64
2023/08/07 02:09:41;;;;;;;2.03;2.03;;;;;;;;;;5091623;28;20442;-64
2023/08/07 02:12:08;;;;;;;1.90;1.80;;;;;;;;;;5091291;28;20445;-64
2023/08/07 02:14:33;;;;;;;3.07;2.00;;;;;;;;;;5091340;28;20447;-64
2023/08/07 02:16:59;;;;;;;2.23;2.13;;;;;;;;;;5091712;28;20422;-64
2023/08/07 02:19:25;;;;;;;3.40;2.10;;;;;;;;;;5091627;28;20465;-64
2023/08/07 02:21:51;;;;;;;3.90;2.23;;;;;;;;;;5091899;28;20414;-64
2023/08/07 02:24:19;;;;;;;6.70;2.30;;;;;;;;;;5093999;28;20917;-64
2023/08/07 02:26:47;;;;;;;2.53;2.40;;;;;;;;;;5095316;28;20484;-64
2023/08/07 02:29:13;;;;;;;2.97;2.40;;;;;;;;;;5095473;28;20425;-64
2023/08/07 02:31:39;;;;;;;4.67;2.00;;;;;;;;;;5095226;28;20433;-64
2023/08/07 02:34:05;;;;;;;3.53;2.30;;;;;;;;;;5095012;28;20405;-64
2023/08/07 02:36:31;;;;;;;3.03;2.47;;;;;;;;;;5095194;28;20870;-64
2023/08/07 02:38:57;;;;;;;3.50;2.13;;;;;;;;;;5095051;28;20511;-64
2023/08/07 02:41:26;;;;;;;2.00;1.87;;;;;;;;;;5093615;28;20418;-64
2023/08/07 02:43:51;;;;;;;2.50;2.40;;;;;;;;;;5095186;28;20922;-67
2023/08/07 02:46:20;;;;;;;3.13;2.17;;;;;;;;;;5096546;28;20460;-65
2023/08/07 02:48:46;;;;;;;4.40;2.33;;;;;;;;;;5095901;28;20588;-65
2023/08/07 02:51:12;;;;;;;2.10;2.00;;;;;;;;;;5094485;28;20787;-65
2023/08/07 02:53:38;;;;;;;2.57;2.37;;;;;;;;;;5094880;28;20444;-64
2023/08/07 02:56:04;;;;;;;2.57;2.43;;;;;;;;;;5097885;28;20826;-65
2023/08/07 02:58:30;;;;;;;3.00;2.60;;;;;;;;;;5097745;28;20860;-65
2023/08/07 03:00:56;;;;;;;6.50;2.40;;;;;;;;;;5096921;28;20409;-65
2023/08/07 03:03:24;;;;;;;2.60;2.40;;;;;;;;;;5097980;28;20464;-65
2023/08/07 03:05:51;;;;;;;2.73;2.60;;;;;;;;;;5097336;28;20406;-65
2023/08/07 03:08:19;;;;;;;3.37;2.63;;;;;;;;;;5094750;28;20500;-65
2023/08/07 03:10:58;;;;;;;2.10;2.00;;;;;;;;;;5096569;28;20437;-65
2023/08/07 03:13:27;;;;;;;7.07;2.20;;;;;;;;;;5097195;28;20534;-65
2023/08/07 03:16:02;;;;;;;3.33;2.17;;;;;;;;;;5097222;28;20430;-65
2023/08/07 03:18:28;;;;;;;3.40;2.50;;;;;;;;;;5097577;28;20469;-65
2023/08/07 03:20:55;;;;;;;5.23;2.13;;;;;;;;;;5097776;28;20417;-65
2023/08/07 03:23:22;;;;;;;2.57;2.37;;;;;;;;;;5097547;28;20406;-65
2023/08/07 03:25:48;;;;;;;2.37;2.27;;;;;;;;;;5096982;28;20418;-65
2023/08/07 03:28:14;;;;;;;2.40;2.30;;;;;;;;;;5096995;28;20490;-65
2023/08/07 03:30:44;;;;;;;4.67;1.97;;;;;;;;;;5097307;28;20449;-65
2023/08/07 03:33:12;;;;;;;2.50;2.40;;;;;;;;;;5095909;28;20448;-65
2023/08/07 03:35:41;;;;;;;3.03;1.80;;;;;;;;;;5095472;28;20423;-65
2023/08/07 03:38:07;;;;;;;4.63;2.50;;;;;;;;;;5096764;28;20544;-64
2023/08/07 03:40:36;;;;;;;3.47;1.80;;;;;;;;;;5097250;28;20414;-64
2023/08/07 03:43:04;;;;;;;3.10;2.13;;;;;;;;;;5096458;28;20421;-65
2023/08/07 03:45:30;;;;;;;2.70;2.50;;;;;;;;;;5096625;28;20418;-65
2023/08/07 03:47:56;;;;;;;2.43;2.33;;;;;;;;;;5096238;28;20903;-65
2023/08/07 03:50:22;;;;;;;2.13;2.00;;;;;;;;;;5094405;28;20418;-65
2023/08/07 03:52:51;;;;;;;3.17;2.87;;;;;;;;;;5096276;28;20922;-64
2023/08/07 03:55:19;;;;;;;2.10;2.00;;;;;;;;;;5095009;28;20434;-64
2023/08/07 03:57:45;;;;;;;3.23;2.10;;;;;;;;;;5095558;28;20440;-64
2023/08/07 04:00:11;;;;;;;3.33;1.90;;;;;;;;;;5096741;28;20441;-64
2023/08/07 04:02:37;;;;;;;6.53;2.80;;;;;;;;;;5096140;28;20442;-64
2023/08/07 04:05:03;;;;;;;2.73;2.10;;;;;;;;;;5094639;28;20413;-64
2023/08/07 04:07:29;;;;;;;2.87;2.63;;;;;;;;;;5095547;28;20790;-64
2023/08/07 04:09:55;;;;;;;3.03;2.23;;;;;;;;;;5096383;28;20519;-64
2023/08/07 04:12:24;;;;;;;2.53;2.43;;;;;;;;;;5096578;28;20444;-64
2023/08/07 04:14:50;;;;;;;3.80;2.10;;;;;;;;;;5094869;28;20413;-64
2023/08/07 04:17:18;;;;;;;2.60;2.20;;;;;;;;;;5093412;28;20525;-64
2023/08/07 04:19:46;;;;;;;4.40;2.03;;;;;;;;;;5093622;28;20518;-64
2023/08/07 04:22:12;;;;;;;2.97;2.03;;;;;;;;;;5093617;28;20402;-64
2023/08/07 04:24:40;;;;;;;2.13;1.90;;;;;;;;;;5092740;28;20417;-64
2023/08/07 04:27:08;;;;;;;12.20;3.57;;;;;;;;;;5092055;28;21010;-64
2023/08/07 04:29:34;;;;;;;2.03;2.03;;;;;;;;;;5093504;28;20419;-64
2023/08/07 04:32:00;;;;;;;2.30;2.20;;;;;;;;;;5093935;28;20889;-64
2023/08/07 04:34:26;;;;;;;3.83;3.53;;;;;;;;;;5091962;28;20442;-64
2023/08/07 04:36:53;;;;;;;4.87;2.67;;;;;;;;;;5092187;28;20472;-64
2023/08/07 04:39:19;;;;;;;3.10;2.87;;;;;;;;;;5092655;28;20471;-64
2023/08/07 04:41:45;;;;;;;2.37;2.27;;;;;;;;;;5091840;28;20414;-64
2023/08/07 04:44:11;;;;;;;7.90;3.00;;;;;;;;;;5092854;28;20679;-64
2023/08/07 04:46:42;;;;;;;5.90;3.90;;;;;;;;;;5092190;28;20454;-63
2023/08/07 04:49:08;;;;;;;2.47;2.37;;;;;;;;;;5092380;28;20493;-63
2023/08/07 04:51:34;;;;;;;3.03;2.20;;;;;;;;;;5090814;28;20538;-63
2023/08/07 04:54:00;;;;;;;2.50;2.30;;;;;;;;;;5092013;28;20446;-63
2023/08/07 04:56:26;;;;;;;2.70;2.60;;;;;;;;;;5090837;28;20453;-63
2023/08/07 04:58:54;;;;;;;2.57;2.30;;;;;;;;;;5092231;28;20554;-63
2023/08/07 05:01:24;;;;;;;2.70;2.57;;;;;;;;;;5092477;28;20900;-63
2023/08/07 05:03:53;;;;;;;6.30;2.70;;;;;;;;;;5091677;28;20466;-65
2023/08/07 05:06:19;;;;;;;5.03;2.30;;;;;;;;;;5092796;28;21019;-64
2023/08/07 05:08:47;;;;;;;7.10;6.43;;;;;;;;;;5093604;28;20467;-64
2023/08/07 05:11:13;;;;;;;2.63;2.50;;;;;;;;;;5092923;28;20418;-64
2023/08/07 05:13:39;;;;;;;3.03;2.83;;;;;;;;;;5094101;28;20441;-64
2023/08/07 05:16:05;;;;;;;3.20;2.93;;;;;;;;;;5094126;28;20448;-64
2023/08/07 05:18:31;;;;;;;2.77;2.63;;;;;;;;;;5093075;28;20528;-64
2023/08/07 05:20:57;;;;;;;3.60;2.80;;;;;;;;;;5094379;28;20405;-63
2023/08/07 05:23:23;;;;;;;7.40;2.50;;;;;;;;;;5092942;28;20437;-64
2023/08/07 05:25:49;;;;;;;2.43;2.23;;;;;;;;;;5093863;28;20470;-64
2023/08/07 05:28:15;;;;;;;3.17;2.33;;;;;;;;;;5094204;28;20421;-64
2023/08/07 05:30:43;;;;;;;2.50;2.30;;;;;;;;;;5093237;28;20402;-64
2023/08/07 05:33:14;;;;;;;2.80;2.60;;;;;;;;;;5091895;28;20513;-63
2023/08/07 05:35:40;;;;;;;2.20;2.10;;;;;;;;;;5093273;28;20421;-64
2023/08/07 05:38:09;;;;;;;2.63;2.10;;;;;;;;;;5093228;28;22706;-64
2023/08/07 05:40:36;;;;;;;2.70;2.50;;;;;;;;;;5092948;28;20409;-64
2023/08/07 05:43:04;;;;;;;5.47;2.10;;;;;;;;;;5092937;28;20407;-64
2023/08/07 05:45:30;;;;;;;1.93;1.80;;;;;;;;;;5093197;28;20406;-64
2023/08/07 05:47:59;;;;;;;5.70;2.13;;;;;;;;;;5093377;28;20414;-63
2023/08/07 05:50:25;;;;;;;2.97;2.57;;;;;;;;;;5093239;28;20898;-63
2023/08/07 05:52:51;;;;;;;2.93;2.40;;;;;;;;;;5093216;28;20429;-63
2023/08/07 05:55:17;;;;;;;2.20;2.10;;;;;;;;;;5092414;28;20408;-63
2023/08/07 05:57:43;;;;;;;3.47;2.03;;;;;;;;;;5094268;28;20432;-63
2023/08/07 06:00:13;;;;;;;1.87;1.63;;;;;;;;;;5096519;28;20501;-63
2023/08/07 06:02:41;;;;;;;2.13;2.03;;;;;;;;;;5096870;28;20406;-63
2023/08/07 06:05:09;;;;;;;2.00;1.90;;;;;;;;;;5096409;28;20877;-63
2023/08/07 06:07:35;;;;;;;2.03;1.93;;;;;;;;;;5095161;28;20430;-63
2023/08/07 06:10:01;;;;;;;3.47;2.23;;;;;;;;;;5096494;28;20567;-63
2023/08/07 06:12:27;;;;;;;4.40;1.97;;;;;;;;;;5095786;28;20494;-63
2023/08/07 06:14:53;;;;;;;1.70;1.70;;;;;;;;;;5096027;28;20491;-63
2023/08/07 06:17:19;;;;;;;2.30;1.73;;;;;;;;;;5096536;28;20439;-63
2023/08/07 06:19:45;;;;;;;2.27;1.70;;;;;;;;;;5095864;28;20465;-63
2023/08/07 06:22:13;;;;;;;2.50;1.90;;;;;;;;;;5095335;28;20430;-63
2023/08/07 06:24:39;;;;;;;3.53;2.20;;;;;;;;;;5096310;28;20425;-63
2023/08/07 06:27:05;;;;;;;2.67;1.80;;;;;;;;;;5095733;28;20411;-64
2023/08/07 06:29:31;;;;;;;2.03;1.70;;;;;;;;;;5095357;28;20510;-64
2023/08/07 06:31:57;;;;;;;1.70;1.70;;;;;;;;;;5095035;28;20660;-63
2023/08/07 06:34:26;;;;;;;2.00;1.90;;;;;;;;;;5095236;28;20910;-63
2023/08/07 06:36:52;;;;;;;2.97;1.80;;;;;;;;;;5095184;28;20521;-63
2023/08/07 06:39:18;;;;;;;2.87;1.90;;;;;;;;;;5095837;28;20456;-64
2023/08/07 06:41:46;;;;;;;2.97;2.17;;;;;;;;;;5095902;28;20440;-64
2023/08/07 06:44:12;;;;;;;3.07;2.37;;;;;;;;;;5096462;28;20386;-63
2023/08/07 06:46:38;;;;;;;2.10;2.00;;;;;;;;;;5094857;28;20923;-64
2023/08/07 06:49:04;;;;;;;4.67;2.10;;;;;;;;;;5095998;28;20427;-63
2023/08/07 06:51:30;;;;;;;2.50;1.93;;;;;;;;;;5097057;28;20436;-63
2023/08/07 06:53:56;;;;;;;3.27;2.40;;;;;;;;;;5096494;28;20793;-63
2023/08/07 06:56:22;;;;;;;2.60;2.10;;;;;;;;;;5096589;28;20431;-63
2023/08/07 06:58:48;;;;;;;4.20;2.20;;;;;;;;;;5096517;28;21029;-63
2023/08/07 07:01:19;;;;;;;3.20;2.00;;;;;;;;;;5096076;28;20410;-63
2023/08/07 07:03:46;;;;;;;1.93;1.93;;;;;;;;;;5096389;28;20420;-64
2023/08/07 07:06:13;;;;;;;2.80;1.70;;;;;;;;;;5095972;28;20486;-64
2023/08/07 07:08:39;;;;;;;2.40;2.00;;;;;;;;;;5095619;28;20422;-64
2023/08/07 07:11:04;;;;;;;2.20;2.00;;;;;;;;;;5095460;28;20770;-64
2023/08/07 07:13:30;;;;;;;2.60;2.03;;;;;;;;;;5095386;28;20426;-64
2023/08/07 07:15:56;;;;;;;3.10;2.10;;;;;;;;;;5095432;28;20891;-64
2023/08/07 07:18:22;;;;;;;2.30;2.00;;;;;;;;;;5094586;28;20470;-64
2023/08/07 07:20:48;;;;;;;2.30;2.20;;;;;;;;;;5095031;28;20422;-64
2023/08/07 07:23:14;;;;;;;2.03;1.80;;;;;;;;;;5094707;28;20442;-64
2023/08/07 07:25:43;;;;;;;1.90;1.80;;;;;;;;;;5094770;28;20406;-64
2023/08/07 07:28:09;;;;;;;4.30;2.23;;;;;;;;;;5093690;28;20447;-65
2023/08/07 07:30:35;;;;;;;4.60;2.00;;;;;;;;;;5095105;28;20915;-64
2023/08/07 07:33:01;;;;;;;1.70;1.60;;;;;;;;;;5093196;28;20439;-64
2023/08/07 07:35:27;;;;;;;1.77;1.77;;;;;;;;;;5094797;28;20493;-64
2023/08/07 07:37:53;;;;;;;3.13;1.90;;;;;;;;;;5094709;28;20440;-64
2023/08/07 07:40:19;;;;;;;1.93;1.50;;;;;;;;;;5094395;28;20502;-64
2023/08/07 07:42:45;;;;;;;2.17;2.07;;;;;;;;;;5094530;28;20442;-64
2023/08/07 07:45:11;;;;;;;2.10;1.93;;;;;;;;;;5094397;28;20419;-64
2023/08/07 07:47:37;;;;;;;1.83;1.67;;;;;;;;;;5093119;28;20691;-64
2023/08/07 07:50:08;;;;;;;2.40;1.67;;;;;;;;;;5093150;28;20415;-64
2023/08/07 07:52:34;;;;;;;6.90;2.23;;;;;;;;;;5093927;28;20407;-64
2023/08/07 07:55:00;;;;;;;1.97;1.90;;;;;;;;;;5093962;28;20424;-64
2023/08/07 07:57:26;;;;;;;3.80;1.90;;;;;;;;;;5094090;28;20950;-64
2023/08/07 07:59:52;;;;;;;3.60;1.90;;;;;;;;;;5092544;28;20470;-64
2023/08/07 08:02:18;;;;;;;3.03;1.70;;;;;;;;;;5093115;28;20454;-64
2023/08/07 08:04:44;;;;;;;1.77;1.70;;;;;;;;;;5092485;28;20412;-64
2023/08/07 08:07:10;;;;;;;1.90;1.80;;;;;;;;;;5093948;28;20992;-64
2023/08/07 08:09:36;;;;;;;2.03;1.93;;;;;;;;;;5093835;28;20427;-64
2023/08/07 08:12:02;;;;;;;1.77;1.63;;;;;;;;;;5093732;28;20511;-64
2023/08/07 08:14:28;;;;;;;2.47;1.83;;;;;;;;;;5093362;28;20412;-64
2023/08/07 08:16:56;;;;;;;1.67;1.57;;;;;;;;;;5093436;28;20414;-64
2023/08/07 08:19:22;;;;;;;6.00;2.40;;;;;;;;;;5093347;28;20474;-64
2023/08/07 08:21:48;;;;;;;2.10;1.90;;;;;;;;;;5093362;28;20403;-64
2023/08/07 08:24:14;;;;;;;5.60;1.90;;;;;;;;;;5091548;28;20762;-64
2023/08/07 08:26:40;;;;;;;2.40;2.20;;;;;;;;;;5093155;28;20416;-64
2023/08/07 08:29:07;;;;;;;2.03;1.97;;;;;;;;;;5092074;28;20434;-64
2023/08/07 08:31:33;;;;;;;1.70;1.70;;;;;;;;;;5093578;28;20446;-64
2023/08/07 08:33:59;;;;;;;1.93;1.83;;;;;;;;;;5093177;28;20882;-64
2023/08/07 08:36:26;;;;;;;1.87;1.87;;;;;;;;;;5093204;28;20441;-64
2023/08/07 08:38:52;;;;;;;1.90;1.90;;;;;;;;;;5092359;28;20520;-64
2023/08/07 08:41:18;;;;;;;2.10;1.97;;;;;;;;;;5093197;28;20419;-64
2023/08/07 08:43:46;;;;;;;2.53;2.43;;;;;;;;;;5093162;28;20412;-64
2023/08/07 08:46:15;;;;;;;2.50;1.90;;;;;;;;;;5093477;28;20413;-64
2023/08/07 08:48:41;;;;;;;6.47;2.27;;;;;;;;;;5092107;28;20448;-64
2023/08/07 08:51:11;;;;;;;2.57;2.03;;;;;;;;;;5091619;28;20421;-64
2023/08/07 08:53:37;;;;;;;2.70;1.90;;;;;;;;;;5092579;28;20440;-64
2023/08/07 08:56:06;;;;;;;2.43;2.10;;;;;;;;;;5092544;28;20419;-64
2023/08/07 08:58:32;;;;;;;6.93;2.17;;;;;;;;;;5092466;28;20474;-64
2023/08/07 09:00:58;;;;;;;2.50;2.30;;;;;;;;;;5092561;28;20461;-64
2023/08/07 09:03:25;;;;;;;3.23;2.03;;;;;;;;;;5092216;28;20408;-64
2023/08/07 09:05:53;;;;;;;4.47;2.47;;;;;;;;;;5093170;28;20408;-64
2023/08/07 09:08:19;;;;;;;6.57;2.20;;;;;;;;;;5092695;28;20785;-64
2023/08/07 09:10:45;;;;;;;2.90;2.73;;;;;;;;;;5092118;28;20468;-64
2023/08/07 09:13:17;;;;;;;24.73;10.53;;;;;;;;;;5092039;28;20466;-64
2023/08/07 09:15:47;;;;;;;4.13;3.27;;;;;;;;;;5092177;28;20418;-64
2023/08/07 09:18:13;;;;;;;2.73;1.93;;;;;;;;;;5092746;28;20452;-65
2023/08/07 09:20:39;;;;;;;3.10;2.90;;;;;;;;;;5090889;28;20429;-64
2023/08/07 09:23:06;;;;;;;6.37;5.50;;;;;;;;;;5092714;28;20405;-64
2023/08/07 09:25:33;;;;;;;17.47;10.73;;;;;;;;;;5092698;28;20493;-64
2023/08/07 09:28:04;;;;;;;1.80;1.80;;;;;;;;;;5092302;28;20437;-64
2023/08/07 09:30:34;;;;;;;1.77;1.67;;;;;;;;;;5091625;28;20458;-64
2023/08/07 09:33:01;;;;;;;1.50;1.50;;;;;;;;;;5090898;28;20437;-64
2023/08/07 09:35:28;;;;;;;3.00;1.80;;;;;;;;;;5092545;28;20500;-64
2023/08/07 09:37:54;;;;;;;1.70;1.60;;;;;;;;;;5091171;28;20432;-64
2023/08/07 09:40:20;;;;;;;1.70;1.60;;;;;;;;;;5092765;28;20468;-64
2023/08/07 09:42:51;;;;;;;1.40;1.40;;;;;;;;;;5092297;28;21042;-64
2023/08/07 09:45:20;;;;;;;1.80;1.70;;;;;;;;;;5092803;28;20447;-64
2023/08/07 09:47:46;;;;;;;1.40;1.30;;;;;;;;;;5092660;28;20520;-64
2023/08/07 09:50:17;;;;;;;1.47;1.47;;;;;;;;;;5091084;28;20951;-64
2023/08/07 09:52:47;;;;;;;1.60;1.50;;;;;;;;;;5092437;28;20418;-64
2023/08/07 09:55:15;;;;;;;1.97;1.70;;;;;;;;;;5092327;28;20461;-64
2023/08/07 09:57:42;;;;;;;1.87;1.70;;;;;;;;;;5092115;28;20441;-64
2023/08/07 10:00:12;;;;;;;2.00;1.80;;;;;;;;;;5092461;28;20490;-65
2023/08/07 10:02:40;;;;;;;1.47;1.37;;;;;;;;;;5092220;28;20439;-65
2023/08/07 10:05:08;;;;;;;1.50;1.43;;;;;;;;;;5092628;28;20429;-65
2023/08/07 10:07:37;;;;;;;1.70;1.60;;;;;;;;;;5092158;28;20406;-65
2023/08/07 10:10:03;;;;;;;2.07;1.97;;;;;;;;;;5092332;28;20445;-65
2023/08/07 10:12:30;;;;;;;2.17;1.97;;;;;;;;;;5092126;28;20441;-66
2023/08/07 10:14:56;;;;;;;2.37;2.00;;;;;;;;;;5090143;28;20469;-66
2023/08/07 10:17:22;;;;;;;5.30;1.83;;;;;;;;;;5090519;28;20812;-66
2023/08/07 10:19:48;;;;;;;2.37;1.57;;;;;;;;;;5091784;28;20473;-66
2023/08/07 10:22:18;;;;;;;1.30;1.30;;;;;;;;;;5091877;28;20438;-65
2023/08/07 10:24:44;;;;;;;1.53;1.43;;;;;;;;;;5092215;28;20498;-64
2023/08/07 10:27:14;;;;;;;1.83;1.73;;;;;;;;;;5092035;28;20422;-65
2023/08/07 10:29:43;;;;;;;2.10;1.50;;;;;;;;;;5090266;28;20940;-65
2023/08/07 10:32:10;;;;;;;1.67;1.57;;;;;;;;;;5092231;28;20418;-65
2023/08/07 10:34:37;;;;;;;2.07;1.60;;;;;;;;;;5091530;28;20442;-65
2023/08/07 10:37:06;;;;;;;2.90;1.57;;;;;;;;;;5091800;28;20427;-65
2023/08/07 10:39:33;;;;;;;5.97;1.90;;;;;;;;;;5091357;28;20466;-65
2023/08/07 10:42:00;;;;;;;2.20;1.67;;;;;;;;;;5091995;28;20826;-65
2023/08/07 10:44:33;;;;;;;1.40;1.40;;;;;;;;;;5093006;28;20431;-65
2023/08/07 10:46:59;;;;;;;2.13;1.60;;;;;;;;;;5095075;28;20415;-64
2023/08/07 10:49:38;;;;;;;5.27;2.00;;;;;;;;;;5095115;28;20442;-65
2023/08/07 10:52:12;;;;;;;1.93;1.50;;;;;;;;;;5094716;28;20435;-65
2023/08/07 10:54:43;;;;;;;1.17;1.17;;;;;;;;;;5094428;28;20419;-66
2023/08/07 10:57:13;;;;;;;1.57;1.50;;;;;;;;;;5095465;28;20425;-65
2023/08/07 10:59:39;;;;;;;1.67;1.57;;;;;;;;;;5094873;28;20867;-65
2023/08/07 11:02:08;;;;;;;1.70;1.60;;;;;;;;;;5094952;28;20415;-65
2023/08/07 11:04:37;;;;;;;1.63;1.50;;;;;;;;;;5095315;28;20437;-64
2023/08/07 11:07:03;;;;;;;1.60;1.53;;;;;;;;;;5094746;28;20411;-64
2023/08/07 11:09:29;;;;;;;2.33;2.03;;;;;;;;;;5093660;28;20445;-64
2023/08/07 11:11:58;;;;;;;1.40;1.40;;;;;;;;;;5093262;28;20437;-64
2023/08/07 11:14:26;;;;;;;2.40;1.13;;;;;;;;;;5095005;28;20430;-64
2023/08/07 11:16:53;;;;;;;1.37;1.37;;;;;;;;;;5095078;28;20468;-66
2023/08/07 11:19:19;;;;;;;1.67;1.57;;;;;;;;;;5094216;28;20479;-66
2023/08/07 11:21:45;;;;;;;1.97;1.60;;;;;;;;;;5094562;28;20477;-66
2023/08/07 11:24:15;;;;;;;1.23;1.23;;;;;;;;;;5094312;28;20894;-66
2023/08/07 11:26:42;;;;;;;6.20;1.87;;;;;;;;;;5094893;28;20433;-66
2023/08/07 11:29:11;;;;;;;1.13;1.13;;;;;;;;;;5094198;28;20438;-66
2023/08/07 11:31:37;;;;;;;2.30;1.67;;;;;;;;;;5093871;28;20445;-66
2023/08/07 11:34:03;;;;;;;1.33;1.30;;;;;;;;;;5094588;28;20421;-66
2023/08/07 11:36:29;;;;;;;1.47;1.33;;;;;;;;;;5094105;28;20416;-65
2023/08/07 11:38:55;;;;;;;1.40;1.30;;;;;;;;;;5092279;28;20467;-65
2023/08/07 11:41:21;;;;;;;4.10;1.20;;;;;;;;;;5094386;28;20438;-66
2023/08/07 11:43:50;;;;;;;1.60;1.50;;;;;;;;;;5093639;28;20804;-66
2023/08/07 11:46:16;;;;;;;7.20;1.57;;;;;;;;;;5093146;28;20494;-66
2023/08/07 11:48:43;;;;;;;1.50;1.40;;;;;;;;;;5093710;28;20450;-66
2023/08/07 11:51:10;;;;;;;2.70;1.20;;;;;;;;;;5094159;28;20526;-66
2023/08/07 11:53:36;;;;;;;2.00;1.10;;;;;;;;;;5094064;28;20412;-66
2023/08/07 11:56:07;;;;;;;1.40;1.30;;;;;;;;;;5093201;28;20440;-66
2023/08/07 11:58:40;;;;;;;2.50;1.10;;;;;;;;;;5093695;28;20487;-65
2023/08/07 12:01:06;;;;;;;1.50;1.50;;;;;;;;;;5093399;28;20439;-66
2023/08/07 12:03:34;;;;;;;2.93;1.43;;;;;;;;;;5093837;28;20409;-66
2023/08/07 12:06:02;;;;;;;1.90;1.60;;;;;;;;;;5093528;28;20429;-65
2023/08/07 12:08:32;;;;;;;1.23;1.23;;;;;;;;;;5093645;28;20421;-66
2023/08/07 12:10:58;;;;;;;1.70;1.60;;;;;;;;;;5093816;28;20518;-66
2023/08/07 12:13:26;;;;;;;1.57;1.57;;;;;;;;;;5093680;28;20501;-66
2023/08/07 12:15:54;;;;;;;2.23;1.50;;;;;;;;;;5093864;28;20436;-67
2023/08/07 12:18:23;;;;;;;2.00;1.50;;;;;;;;;;5092250;28;20793;-66
2023/08/07 12:20:50;;;;;;;1.33;1.33;;;;;;;;;;5093591;28;20415;-65
2023/08/07 12:23:16;;;;;;;1.10;1.10;;;;;;;;;;5093254;28;20932;-66
2023/08/07 12:25:45;;;;;;;1.20;1.20;;;;;;;;;;5093342;28;20442;-66
2023/08/07 12:28:11;;;;;;;1.00;1.00;;;;;;;;;;5093535;28;20449;-66
2023/08/07 12:30:38;;;;;;;1.60;1.27;;;;;;;;;;5092063;28;20473;-65
2023/08/07 12:33:04;;;;;;;2.07;1.10;;;;;;;;;;5093174;28;20420;-66
2023/08/07 12:35:33;;;;;;;1.07;1.07;;;;;;;;;;5092462;28;20912;-65
2023/08/07 12:37:59;;;;;;;2.10;2.03;;;;;;;;;;5093461;28;20531;-65
2023/08/07 12:40:25;;;;;;;1.67;1.30;;;;;;;;;;5092718;28;20634;-65
2023/08/07 12:42:51;;;;;;;8.70;3.47;;;;;;;;;;5093476;28;20402;-66
2023/08/07 12:45:18;;;;;;;1.67;1.60;;;;;;;;;;5093121;28;20469;-65
2023/08/07 12:47:45;;;;;;;3.33;1.70;;;;;;;;;;5093070;28;20498;-65
2023/08/07 12:50:10;;;;;;;1.53;1.37;;;;;;;;;;5092928;28;20417;-65
2023/08/07 12:52:39;;;;;;;1.50;1.50;;;;;;;;;;5093292;28;20797;-65
2023/08/07 12:55:05;;;;;;;2.70;1.30;;;;;;;;;;5091809;28;20415;-65
2023/08/07 12:57:31;;;;;;;1.43;1.33;;;;;;;;;;5092699;28;20494;-65
2023/08/07 12:59:57;;;;;;;4.00;1.67;;;;;;;;;;5092851;28;20517;-65
2023/08/07 13:02:23;;;;;;;1.87;1.57;;;;;;;;;;5093545;28;20488;-64
2023/08/07 13:04:50;;;;;;;1.60;1.50;;;;;;;;;;5092805;28;20459;-65
2023/08/07 13:07:19;;;;;;;1.40;1.40;;;;;;;;;;5090804;28;20467;-65
2023/08/07 13:09:47;;;;;;;2.33;1.37;;;;;;;;;;5092704;28;20418;-65
2023/08/07 13:12:13;;;;;;;1.30;1.20;;;;;;;;;;5092833;28;20546;-64
2023/08/07 13:14:41;;;;;;;2.13;1.17;;;;;;;;;;5092465;28;20464;-66
2023/08/07 13:17:07;;;;;;;1.60;1.50;;;;;;;;;;5092686;28;20848;-65
2023/08/07 13:19:33;;;;;;;1.50;1.40;;;;;;;;;;5092783;28;20458;-66
2023/08/07 13:21:59;;;;;;;1.37;1.37;;;;;;;;;;5092519;28;20433;-66
2023/08/07 13:24:25;;;;;;;1.60;1.50;;;;;;;;;;5092255;28;20411;-65
2023/08/07 13:26:51;;;;;;;1.13;1.00;;;;;;;;;;5092462;28;20794;-66
2023/08/07 13:29:17;;;;;;;4.27;1.17;;;;;;;;;;5091940;28;20424;-66
2023/08/07 13:31:46;;;;;;;1.37;1.10;;;;;;;;;;5091444;28;20946;-66
2023/08/07 13:34:12;;;;;;;1.10;1.10;;;;;;;;;;5092452;28;20423;-66
2023/08/07 13:36:38;;;;;;;1.10;1.10;;;;;;;;;;5092568;28;20961;-66
2023/08/07 13:39:05;;;;;;;2.93;1.47;;;;;;;;;;5092560;28;20972;-65
2023/08/07 13:41:32;;;;;;;1.43;1.20;;;;;;;;;;5092251;28;20411;-67
2023/08/07 13:43:58;;;;;;;1.50;1.40;;;;;;;;;;5092526;28;20589;-66
2023/08/07 13:46:24;;;;;;;1.07;1.00;;;;;;;;;;5092263;28;20419;-65
2023/08/07 13:48:50;;;;;;;7.50;1.27;;;;;;;;;;5092603;28;20415;-65
2023/08/07 13:51:17;;;;;;;0.90;0.90;;;;;;;;;;5092070;28;20444;-65
2023/08/07 13:53:45;;;;;;;1.33;1.23;;;;;;;;;;5092609;28;20404;-65
2023/08/07 13:56:12;;;;;;;1.20;1.20;;;;;;;;;;5092525;28;20442;-65
2023/08/07 13:58:41;;;;;;;1.20;1.20;;;;;;;;;;5092119;28;20468;-65
2023/08/07 14:01:08;;;;;;;1.60;1.50;;;;;;;;;;5091085;28;20431;-64
2023/08/07 14:03:34;;;;;;;1.00;1.00;;;;;;;;;;5091817;28;20790;-64
2023/08/07 14:06:00;;;;;;;1.27;1.17;;;;;;;;;;5092047;28;20419;-64
2023/08/07 14:08:26;;;;;;;1.70;1.60;;;;;;;;;;5091998;28;20446;-65
2023/08/07 14:10:54;;;;;;;1.40;1.30;;;;;;;;;;5092107;28;20423;-66
2023/08/07 14:13:20;;;;;;;100.43;5.23;;;;;;;;;;5091832;28;20451;-66
2023/08/07 14:15:46;;;;;;;1.13;1.10;;;;;;;;;;5091706;28;20508;-66
2023/08/07 14:18:14;;;;;;;1.00;1.00;;;;;;;;;;5092484;28;20431;-66
2023/08/07 14:20:40;;;;;;;0.93;0.93;;;;;;;;;;5096152;28;20407;-63
2023/08/07 14:23:06;;;;;;;0.93;0.80;;;;;;;;;;5094747;28;20458;-67
2023/08/07 14:25:32;;;;;;;0.90;0.90;;;;;;;;;;5095694;28;20408;-66
2023/08/07 14:28:01;;;;;;;1.00;0.80;;;;;;;;;;5095760;28;20529;-66
2023/08/07 14:30:27;;;;;;;2.63;1.00;;;;;;;;;;5095562;28;20440;-66
2023/08/07 14:32:53;;;;;;;1.23;1.00;;;;;;;;;;5095803;28;20476;-66
2023/08/07 14:35:19;;;;;;;4.83;0.97;;;;;;;;;;5094325;28;20424;-66
2023/08/07 14:37:48;;;;;;;0.80;0.80;;;;;;;;;;5095078;28;20469;-66
2023/08/07 14:40:16;;;;;;;2.33;0.87;;;;;;;;;;5095891;28;20895;-66
2023/08/07 14:42:42;;;;;;;0.83;0.83;;;;;;;;;;5095245;28;20932;-66